METAR Data
IDs: Format: Raw Decoded Include TAF

Data at: 1508 UTC 17 Nov 2019

METAR for:KMOP (Mount Pleasant Muni, MI, US)
Text:KMOP 171455Z AUTO 10003KT 10SM CLR M03/M06 A3009 RMK AO2 T10331056
Temperature: -3.3°C ( 26°F)
Dewpoint: -5.6°C ( 22°F) [RH = 84%]
Pressure (altimeter):30.09 inches Hg (1019.0 mb)
Winds:from the E (100 degrees) at 3 MPH (3 knots; 1.5 m/s)
Visibility:10 or more sm (16+ km)
Ceiling:at least 12,000 feet AGL
Clouds:sky clear below 12,000 feet AGL
QC Flag:automated observation with no human augmentation